sensor_id;sensor_type;location;lat;lon;timestamp;P1;durP1;ratioP1;P2;durP2;ratioP2
31500;SDS011;31032;49.512;10.892;2022-08-03T00:02:15;2.17;;;1.40;;
31500;SDS011;31032;49.512;10.892;2022-08-03T00:04:40;3.00;;;1.25;;
31500;SDS011;31032;49.512;10.892;2022-08-03T00:07:06;2.30;;;1.23;;
31500;SDS011;31032;49.512;10.892;2022-08-03T00:09:31;2.25;;;1.42;;
31500;SDS011;31032;49.512;10.892;2022-08-03T00:11:57;2.80;;;1.65;;
31500;SDS011;31032;49.512;10.892;2022-08-03T00:14:22;1.98;;;1.35;;
31500;SDS011;31032;49.512;10.892;2022-08-03T00:16:47;2.13;;;1.40;;
31500;SDS011;31032;49.512;10.892;2022-08-03T00:19:13;2.80;;;1.77;;
31500;SDS011;31032;49.512;10.892;2022-08-03T00:21:38;2.28;;;1.52;;
31500;SDS011;31032;49.512;10.892;2022-08-03T00:24:03;3.08;;;1.45;;
31500;SDS011;31032;49.512;10.892;2022-08-03T00:26:29;2.17;;;1.55;;
31500;SDS011;31032;49.512;10.892;2022-08-03T00:28:55;3.40;;;1.52;;
31500;SDS011;31032;49.512;10.892;2022-08-03T00:31:20;1.88;;;1.23;;
31500;SDS011;31032;49.512;10.892;2022-08-03T00:33:46;2.83;;;1.42;;
31500;SDS011;31032;49.512;10.892;2022-08-03T00:36:11;2.58;;;1.60;;
31500;SDS011;31032;49.512;10.892;2022-08-03T00:38:37;2.83;;;1.55;;
31500;SDS011;31032;49.512;10.892;2022-08-03T00:41:02;2.30;;;1.60;;
31500;SDS011;31032;49.512;10.892;2022-08-03T00:43:27;2.40;;;1.42;;
31500;SDS011;31032;49.512;10.892;2022-08-03T00:45:52;3.10;;;1.55;;
31500;SDS011;31032;49.512;10.892;2022-08-03T00:48:19;2.25;;;1.50;;
31500;SDS011;31032;49.512;10.892;2022-08-03T00:50:45;2.35;;;1.33;;
31500;SDS011;31032;49.512;10.892;2022-08-03T00:53:12;1.85;;;1.40;;
31500;SDS011;31032;49.512;10.892;2022-08-03T00:55:39;2.72;;;1.52;;
31500;SDS011;31032;49.512;10.892;2022-08-03T00:58:05;3.17;;;1.63;;
31500;SDS011;31032;49.512;10.892;2022-08-03T01:00:32;2.40;;;1.60;;
31500;SDS011;31032;49.512;10.892;2022-08-03T01:03:00;2.83;;;1.50;;
31500;SDS011;31032;49.512;10.892;2022-08-03T01:05:26;2.33;;;1.63;;
31500;SDS011;31032;49.512;10.892;2022-08-03T01:07:55;3.13;;;1.70;;
31500;SDS011;31032;49.512;10.892;2022-08-03T01:16:18;4.57;;;1.70;;
31500;SDS011;31032;49.512;10.892;2022-08-03T01:21:58;3.65;;;1.83;;
31500;SDS011;31032;49.512;10.892;2022-08-03T01:25:08;2.13;;;1.50;;
31500;SDS011;31032;49.512;10.892;2022-08-03T01:30:30;2.58;;;1.83;;
31500;SDS011;31032;49.512;10.892;2022-08-03T01:32:59;2.23;;;1.50;;
31500;SDS011;31032;49.512;10.892;2022-08-03T01:35:31;2.88;;;1.90;;
31500;SDS011;31032;49.512;10.892;2022-08-03T01:38:02;3.13;;;1.50;;
31500;SDS011;31032;49.512;10.892;2022-08-03T01:40:30;2.40;;;1.70;;
31500;SDS011;31032;49.512;10.892;2022-08-03T01:42:59;2.95;;;1.90;;
31500;SDS011;31032;49.512;10.892;2022-08-03T01:45:27;2.65;;;1.60;;
31500;SDS011;31032;49.512;10.892;2022-08-03T01:47:54;2.42;;;1.27;;
31500;SDS011;31032;49.512;10.892;2022-08-03T01:50:25;2.38;;;1.60;;
31500;SDS011;31032;49.512;10.892;2022-08-03T01:52:53;2.40;;;1.70;;
31500;SDS011;31032;49.512;10.892;2022-08-03T01:55:20;3.70;;;1.90;;
31500;SDS011;31032;49.512;10.892;2022-08-03T01:57:47;2.25;;;1.60;;
31500;SDS011;31032;49.512;10.892;2022-08-03T02:00:15;4.03;;;1.85;;
31500;SDS011;31032;49.512;10.892;2022-08-03T02:02:41;1.83;;;1.60;;
31500;SDS011;31032;49.512;10.892;2022-08-03T02:05:08;2.25;;;1.80;;
31500;SDS011;31032;49.512;10.892;2022-08-03T02:07:36;3.03;;;1.80;;
31500;SDS011;31032;49.512;10.892;2022-08-03T02:10:05;2.70;;;1.93;;
31500;SDS011;31032;49.512;10.892;2022-08-03T02:12:31;2.70;;;1.95;;
31500;SDS011;31032;49.512;10.892;2022-08-03T02:14:58;2.97;;;1.90;;
31500;SDS011;31032;49.512;10.892;2022-08-03T02:17:26;2.13;;;1.60;;
31500;SDS011;31032;49.512;10.892;2022-08-03T02:19:53;2.30;;;1.90;;
31500;SDS011;31032;49.512;10.892;2022-08-03T02:22:22;2.45;;;1.80;;
31500;SDS011;31032;49.512;10.892;2022-08-03T02:24:49;2.30;;;1.98;;
31500;SDS011;31032;49.512;10.892;2022-08-03T02:27:22;3.22;;;1.90;;
31500;SDS011;31032;49.512;10.892;2022-08-03T02:29:54;3.42;;;2.10;;
31500;SDS011;31032;49.512;10.892;2022-08-03T02:32:23;2.78;;;2.17;;
31500;SDS011;31032;49.512;10.892;2022-08-03T02:35:03;3.22;;;2.28;;
31500;SDS011;31032;49.512;10.892;2022-08-03T02:37:33;3.67;;;2.30;;
31500;SDS011;31032;49.512;10.892;2022-08-03T02:40:02;4.30;;;2.00;;
31500;SDS011;31032;49.512;10.892;2022-08-03T02:42:31;2.30;;;1.80;;
31500;SDS011;31032;49.512;10.892;2022-08-03T02:44:57;2.20;;;1.70;;
31500;SDS011;31032;49.512;10.892;2022-08-03T02:49:52;2.50;;;2.10;;
31500;SDS011;31032;49.512;10.892;2022-08-03T02:52:20;2.20;;;1.85;;
31500;SDS011;31032;49.512;10.892;2022-08-03T02:54:48;3.00;;;2.28;;
31500;SDS011;31032;49.512;10.892;2022-08-03T02:57:17;3.88;;;2.15;;
31500;SDS011;31032;49.512;10.892;2022-08-03T02:59:44;2.97;;;2.40;;
31500;SDS011;31032;49.512;10.892;2022-08-03T03:02:11;3.78;;;2.33;;
31500;SDS011;31032;49.512;10.892;2022-08-03T03:04:38;3.17;;;2.15;;
31500;SDS011;31032;49.512;10.892;2022-08-03T03:07:04;2.63;;;2.08;;
31500;SDS011;31032;49.512;10.892;2022-08-03T03:09:31;3.53;;;2.60;;
31500;SDS011;31032;49.512;10.892;2022-08-03T03:12:00;6.72;;;2.10;;
31500;SDS011;31032;49.512;10.892;2022-08-03T03:14:26;4.10;;;2.30;;
31500;SDS011;31032;49.512;10.892;2022-08-03T03:16:52;3.92;;;1.92;;
31500;SDS011;31032;49.512;10.892;2022-08-03T03:19:18;2.67;;;2.10;;
31500;SDS011;31032;49.512;10.892;2022-08-03T03:21:45;3.85;;;2.47;;
31500;SDS011;31032;49.512;10.892;2022-08-03T03:24:11;4.70;;;2.67;;
31500;SDS011;31032;49.512;10.892;2022-08-03T03:26:37;5.78;;;2.58;;
31500;SDS011;31032;49.512;10.892;2022-08-03T03:29:02;4.60;;;2.63;;
31500;SDS011;31032;49.512;10.892;2022-08-03T03:31:31;5.15;;;2.28;;
31500;SDS011;31032;49.512;10.892;2022-08-03T03:33:57;7.07;;;2.35;;
31500;SDS011;31032;49.512;10.892;2022-08-03T03:36:23;3.90;;;2.63;;
31500;SDS011;31032;49.512;10.892;2022-08-03T03:38:48;3.47;;;2.40;;
31500;SDS011;31032;49.512;10.892;2022-08-03T03:41:13;5.00;;;2.30;;
31500;SDS011;31032;49.512;10.892;2022-08-03T03:43:39;3.88;;;1.90;;
31500;SDS011;31032;49.512;10.892;2022-08-03T03:46:04;3.08;;;2.40;;
31500;SDS011;31032;49.512;10.892;2022-08-03T03:48:30;3.00;;;2.47;;
31500;SDS011;31032;49.512;10.892;2022-08-03T03:50:55;3.30;;;2.13;;
31500;SDS011;31032;49.512;10.892;2022-08-03T03:53:22;3.20;;;2.42;;
31500;SDS011;31032;49.512;10.892;2022-08-03T03:55:47;3.83;;;2.05;;
31500;SDS011;31032;49.512;10.892;2022-08-03T03:58:12;3.33;;;2.40;;
31500;SDS011;31032;49.512;10.892;2022-08-03T04:00:38;4.93;;;2.42;;
31500;SDS011;31032;49.512;10.892;2022-08-03T04:03:04;4.55;;;2.45;;
31500;SDS011;31032;49.512;10.892;2022-08-03T04:05:29;4.53;;;2.63;;
31500;SDS011;31032;49.512;10.892;2022-08-03T04:08:15;3.67;;;2.30;;
31500;SDS011;31032;49.512;10.892;2022-08-03T04:11:19;3.75;;;2.42;;
31500;SDS011;31032;49.512;10.892;2022-08-03T04:13:52;15.63;;;3.13;;
31500;SDS011;31032;49.512;10.892;2022-08-03T04:16:25;13.52;;;3.08;;
31500;SDS011;31032;49.512;10.892;2022-08-03T04:18:56;11.90;;;2.95;;
31500;SDS011;31032;49.512;10.892;2022-08-03T04:21:26;15.65;;;3.10;;
31500;SDS011;31032;49.512;10.892;2022-08-03T04:23:54;11.65;;;3.20;;
31500;SDS011;31032;49.512;10.892;2022-08-03T04:26:23;14.73;;;3.65;;
31500;SDS011;31032;49.512;10.892;2022-08-03T04:28:53;9.88;;;3.25;;
31500;SDS011;31032;49.512;10.892;2022-08-03T04:31:22;16.10;;;3.30;;
31500;SDS011;31032;49.512;10.892;2022-08-03T04:33:50;9.95;;;2.70;;
31500;SDS011;31032;49.512;10.892;2022-08-03T04:36:18;8.98;;;2.50;;
31500;SDS011;31032;49.512;10.892;2022-08-03T04:38:52;5.68;;;2.50;;
31500;SDS011;31032;49.512;10.892;2022-08-03T04:41:23;5.80;;;2.78;;
31500;SDS011;31032;49.512;10.892;2022-08-03T04:43:51;6.40;;;2.70;;
31500;SDS011;31032;49.512;10.892;2022-08-03T04:46:18;4.82;;;2.60;;
31500;SDS011;31032;49.512;10.892;2022-08-03T04:48:48;5.82;;;3.05;;
31500;SDS011;31032;49.512;10.892;2022-08-03T04:51:13;9.93;;;3.10;;
31500;SDS011;31032;49.512;10.892;2022-08-03T04:53:39;3.38;;;2.50;;
31500;SDS011;31032;49.512;10.892;2022-08-03T04:56:05;5.90;;;3.40;;
31500;SDS011;31032;49.512;10.892;2022-08-03T04:58:31;5.35;;;3.03;;
31500;SDS011;31032;49.512;10.892;2022-08-03T05:00:56;4.85;;;2.92;;
31500;SDS011;31032;49.512;10.892;2022-08-03T05:03:22;3.90;;;2.80;;
31500;SDS011;31032;49.512;10.892;2022-08-03T05:05:47;5.18;;;3.15;;
31500;SDS011;31032;49.512;10.892;2022-08-03T05:08:12;4.15;;;3.03;;
31500;SDS011;31032;49.512;10.892;2022-08-03T05:10:38;6.13;;;3.38;;
31500;SDS011;31032;49.512;10.892;2022-08-03T05:13:03;7.10;;;3.03;;
31500;SDS011;31032;49.512;10.892;2022-08-03T05:15:28;3.88;;;2.72;;
31500;SDS011;31032;49.512;10.892;2022-08-03T05:17:54;5.47;;;3.20;;
31500;SDS011;31032;49.512;10.892;2022-08-03T05:20:19;4.50;;;3.33;;
31500;SDS011;31032;49.512;10.892;2022-08-03T05:22:45;5.65;;;3.22;;
31500;SDS011;31032;49.512;10.892;2022-08-03T05:25:10;4.22;;;3.00;;
31500;SDS011;31032;49.512;10.892;2022-08-03T05:27:35;4.25;;;3.28;;
31500;SDS011;31032;49.512;10.892;2022-08-03T05:30:01;3.92;;;3.03;;
31500;SDS011;31032;49.512;10.892;2022-08-03T05:32:26;5.03;;;3.38;;
31500;SDS011;31032;49.512;10.892;2022-08-03T05:34:51;7.35;;;3.60;;
31500;SDS011;31032;49.512;10.892;2022-08-03T05:37:16;11.32;;;3.45;;
31500;SDS011;31032;49.512;10.892;2022-08-03T05:39:42;4.25;;;3.05;;
31500;SDS011;31032;49.512;10.892;2022-08-03T05:42:07;5.90;;;3.22;;
31500;SDS011;31032;49.512;10.892;2022-08-03T05:44:32;4.80;;;3.50;;
31500;SDS011;31032;49.512;10.892;2022-08-03T05:46:58;4.50;;;2.88;;
31500;SDS011;31032;49.512;10.892;2022-08-03T05:49:23;5.20;;;3.33;;
31500;SDS011;31032;49.512;10.892;2022-08-03T05:51:49;4.75;;;3.30;;
31500;SDS011;31032;49.512;10.892;2022-08-03T05:54:14;5.40;;;3.67;;
31500;SDS011;31032;49.512;10.892;2022-08-03T05:56:39;6.88;;;3.90;;
31500;SDS011;31032;49.512;10.892;2022-08-03T05:59:05;6.55;;;3.90;;
31500;SDS011;31032;49.512;10.892;2022-08-03T06:01:31;5.72;;;4.07;;
31500;SDS011;31032;49.512;10.892;2022-08-03T06:03:57;5.38;;;3.67;;
31500;SDS011;31032;49.512;10.892;2022-08-03T06:06:22;6.35;;;4.10;;
31500;SDS011;31032;49.512;10.892;2022-08-03T06:08:48;5.68;;;3.60;;
31500;SDS011;31032;49.512;10.892;2022-08-03T06:11:13;5.90;;;3.97;;
31500;SDS011;31032;49.512;10.892;2022-08-03T06:13:40;6.97;;;3.80;;
31500;SDS011;31032;49.512;10.892;2022-08-03T06:16:06;5.70;;;3.70;;
31500;SDS011;31032;49.512;10.892;2022-08-03T06:18:31;6.25;;;3.90;;
31500;SDS011;31032;49.512;10.892;2022-08-03T06:20:56;6.47;;;3.67;;
31500;SDS011;31032;49.512;10.892;2022-08-03T06:23:22;5.78;;;3.38;;
31500;SDS011;31032;49.512;10.892;2022-08-03T06:25:47;5.53;;;3.92;;
31500;SDS011;31032;49.512;10.892;2022-08-03T06:28:12;6.78;;;3.90;;
31500;SDS011;31032;49.512;10.892;2022-08-03T06:30:39;5.70;;;3.75;;
31500;SDS011;31032;49.512;10.892;2022-08-03T06:33:05;6.00;;;3.55;;
31500;SDS011;31032;49.512;10.892;2022-08-03T06:35:30;6.72;;;3.75;;
31500;SDS011;31032;49.512;10.892;2022-08-03T06:37:55;4.93;;;3.67;;
31500;SDS011;31032;49.512;10.892;2022-08-03T06:40:21;6.20;;;3.83;;
31500;SDS011;31032;49.512;10.892;2022-08-03T06:42:58;6.88;;;3.35;;
31500;SDS011;31032;49.512;10.892;2022-08-03T06:45:25;6.07;;;3.83;;
31500;SDS011;31032;49.512;10.892;2022-08-03T06:48:07;6.05;;;3.83;;
31500;SDS011;31032;49.512;10.892;2022-08-03T06:50:34;8.10;;;3.60;;
31500;SDS011;31032;49.512;10.892;2022-08-03T06:53:01;6.63;;;3.17;;
31500;SDS011;31032;49.512;10.892;2022-08-03T06:55:28;6.35;;;3.20;;
31500;SDS011;31032;49.512;10.892;2022-08-03T06:57:53;5.82;;;3.05;;
31500;SDS011;31032;49.512;10.892;2022-08-03T07:00:19;4.13;;;2.60;;
31500;SDS011;31032;49.512;10.892;2022-08-03T07:02:44;3.58;;;2.40;;
31500;SDS011;31032;49.512;10.892;2022-08-03T07:05:10;4.78;;;2.30;;
31500;SDS011;31032;49.512;10.892;2022-08-03T07:07:36;4.55;;;2.38;;
31500;SDS011;31032;49.512;10.892;2022-08-03T07:10:02;6.20;;;2.67;;
31500;SDS011;31032;49.512;10.892;2022-08-03T07:12:28;9.80;;;4.00;;
31500;SDS011;31032;49.512;10.892;2022-08-03T07:14:54;4.70;;;2.65;;
31500;SDS011;31032;49.512;10.892;2022-08-03T07:17:21;3.92;;;2.10;;
31500;SDS011;31032;49.512;10.892;2022-08-03T07:19:47;4.30;;;2.42;;
31500;SDS011;31032;49.512;10.892;2022-08-03T07:22:12;3.70;;;2.45;;
31500;SDS011;31032;49.512;10.892;2022-08-03T07:24:38;5.85;;;2.67;;
31500;SDS011;31032;49.512;10.892;2022-08-03T07:27:03;6.93;;;2.75;;
31500;SDS011;31032;49.512;10.892;2022-08-03T07:29:28;2.95;;;2.08;;
31500;SDS011;31032;49.512;10.892;2022-08-03T07:31:54;3.83;;;2.50;;
31500;SDS011;31032;49.512;10.892;2022-08-03T07:34:19;3.95;;;2.50;;
31500;SDS011;31032;49.512;10.892;2022-08-03T07:36:45;3.45;;;2.58;;
31500;SDS011;31032;49.512;10.892;2022-08-03T07:39:10;5.78;;;2.72;;
31500;SDS011;31032;49.512;10.892;2022-08-03T07:41:35;4.90;;;2.40;;
31500;SDS011;31032;49.512;10.892;2022-08-03T07:44:01;5.03;;;2.70;;
31500;SDS011;31032;49.512;10.892;2022-08-03T07:46:26;4.35;;;2.55;;
31500;SDS011;31032;49.512;10.892;2022-08-03T07:48:52;3.97;;;2.40;;
31500;SDS011;31032;49.512;10.892;2022-08-03T07:51:17;4.65;;;2.30;;
31500;SDS011;31032;49.512;10.892;2022-08-03T07:53:43;6.05;;;2.47;;
31500;SDS011;31032;49.512;10.892;2022-08-03T07:56:08;4.35;;;2.30;;
31500;SDS011;31032;49.512;10.892;2022-08-03T07:58:34;5.10;;;2.10;;
31500;SDS011;31032;49.512;10.892;2022-08-03T08:00:59;4.20;;;1.98;;
31500;SDS011;31032;49.512;10.892;2022-08-03T08:03:25;5.75;;;2.63;;
31500;SDS011;31032;49.512;10.892;2022-08-03T08:05:50;4.93;;;2.38;;
31500;SDS011;31032;49.512;10.892;2022-08-03T08:08:16;5.28;;;2.30;;
31500;SDS011;31032;49.512;10.892;2022-08-03T08:10:41;3.80;;;2.25;;
31500;SDS011;31032;49.512;10.892;2022-08-03T08:13:06;4.43;;;2.40;;
31500;SDS011;31032;49.512;10.892;2022-08-03T08:15:31;4.60;;;1.98;;
31500;SDS011;31032;49.512;10.892;2022-08-03T08:17:58;10.32;;;3.42;;
31500;SDS011;31032;49.512;10.892;2022-08-03T08:20:29;5.00;;;1.77;;
31500;SDS011;31032;49.512;10.892;2022-08-03T08:22:58;3.17;;;1.58;;
31500;SDS011;31032;49.512;10.892;2022-08-03T08:25:28;6.00;;;1.67;;
31500;SDS011;31032;49.512;10.892;2022-08-03T08:27:55;4.07;;;1.42;;
31500;SDS011;31032;49.512;10.892;2022-08-03T08:30:21;2.95;;;1.38;;
31500;SDS011;31032;49.512;10.892;2022-08-03T08:32:47;3.05;;;1.40;;
31500;SDS011;31032;49.512;10.892;2022-08-03T08:35:14;3.40;;;1.50;;
31500;SDS011;31032;49.512;10.892;2022-08-03T08:37:40;2.90;;;1.20;;
31500;SDS011;31032;49.512;10.892;2022-08-03T08:40:07;2.20;;;1.25;;
31500;SDS011;31032;49.512;10.892;2022-08-03T08:42:35;6.13;;;1.65;;
31500;SDS011;31032;49.512;10.892;2022-08-03T08:47:30;3.80;;;1.60;;
31500;SDS011;31032;49.512;10.892;2022-08-03T08:49:56;2.15;;;1.20;;
31500;SDS011;31032;49.512;10.892;2022-08-03T08:52:24;1.25;;;0.82;;
31500;SDS011;31032;49.512;10.892;2022-08-03T08:54:52;1.45;;;0.90;;
31500;SDS011;31032;49.512;10.892;2022-08-03T08:57:21;2.15;;;1.20;;
31500;SDS011;31032;49.512;10.892;2022-08-03T08:59:50;2.15;;;0.90;;
31500;SDS011;31032;49.512;10.892;2022-08-03T09:02:17;2.63;;;1.15;;
31500;SDS011;31032;49.512;10.892;2022-08-03T09:04:43;2.22;;;1.13;;
31500;SDS011;31032;49.512;10.892;2022-08-03T09:07:09;2.28;;;1.00;;
31500;SDS011;31032;49.512;10.892;2022-08-03T09:12:19;1.73;;;0.88;;
31500;SDS011;31032;49.512;10.892;2022-08-03T09:14:44;2.42;;;1.00;;
31500;SDS011;31032;49.512;10.892;2022-08-03T09:17:10;1.73;;;1.00;;
31500;SDS011;31032;49.512;10.892;2022-08-03T09:19:35;2.10;;;0.95;;
31500;SDS011;31032;49.512;10.892;2022-08-03T09:24:37;1.73;;;0.93;;
31500;SDS011;31032;49.512;10.892;2022-08-03T09:27:07;2.33;;;0.90;;
31500;SDS011;31032;49.512;10.892;2022-08-03T09:29:37;3.08;;;1.05;;
31500;SDS011;31032;49.512;10.892;2022-08-03T09:32:03;2.28;;;0.80;;
31500;SDS011;31032;49.512;10.892;2022-08-03T09:34:28;1.50;;;0.90;;
31500;SDS011;31032;49.512;10.892;2022-08-03T09:36:54;2.63;;;1.10;;
31500;SDS011;31032;49.512;10.892;2022-08-03T09:39:25;1.50;;;0.95;;
31500;SDS011;31032;49.512;10.892;2022-08-03T09:42:13;2.55;;;1.08;;
31500;SDS011;31032;49.512;10.892;2022-08-03T09:44:45;2.90;;;0.90;;
31500;SDS011;31032;49.512;10.892;2022-08-03T09:47:13;1.85;;;0.85;;
31500;SDS011;31032;49.512;10.892;2022-08-03T09:49:40;1.30;;;0.88;;
31500;SDS011;31032;49.512;10.892;2022-08-03T09:52:14;1.65;;;0.90;;
31500;SDS011;31032;49.512;10.892;2022-08-03T09:54:43;0.98;;;0.82;;
31500;SDS011;31032;49.512;10.892;2022-08-03T09:57:21;4.13;;;0.80;;
31500;SDS011;31032;49.512;10.892;2022-08-03T09:59:49;1.55;;;0.70;;
31500;SDS011;31032;49.512;10.892;2022-08-03T10:02:25;2.53;;;0.90;;
31500;SDS011;31032;49.512;10.892;2022-08-03T10:04:51;1.45;;;0.82;;
31500;SDS011;31032;49.512;10.892;2022-08-03T10:07:22;1.27;;;0.88;;
31500;SDS011;31032;49.512;10.892;2022-08-03T10:09:52;1.80;;;0.90;;
31500;SDS011;31032;49.512;10.892;2022-08-03T10:12:19;1.40;;;0.70;;
31500;SDS011;31032;49.512;10.892;2022-08-03T10:14:45;2.17;;;1.05;;
31500;SDS011;31032;49.512;10.892;2022-08-03T10:17:11;2.10;;;1.05;;
31500;SDS011;31032;49.512;10.892;2022-08-03T10:19:37;1.65;;;0.90;;
31500;SDS011;31032;49.512;10.892;2022-08-03T10:22:03;1.95;;;0.70;;
31500;SDS011;31032;49.512;10.892;2022-08-03T10:24:36;1.20;;;0.70;;
31500;SDS011;31032;49.512;10.892;2022-08-03T10:27:07;1.55;;;0.90;;
31500;SDS011;31032;49.512;10.892;2022-08-03T10:29:37;2.47;;;1.10;;
31500;SDS011;31032;49.512;10.892;2022-08-03T10:32:09;2.10;;;0.82;;
31500;SDS011;31032;49.512;10.892;2022-08-03T10:34:41;2.67;;;0.90;;
31500;SDS011;31032;49.512;10.892;2022-08-03T10:37:08;1.83;;;1.00;;
31500;SDS011;31032;49.512;10.892;2022-08-03T10:42:02;2.70;;;0.68;;
31500;SDS011;31032;49.512;10.892;2022-08-03T10:44:36;1.17;;;0.85;;
31500;SDS011;31032;49.512;10.892;2022-08-03T10:47:03;1.02;;;0.68;;
31500;SDS011;31032;49.512;10.892;2022-08-03T10:49:30;2.10;;;0.85;;
31500;SDS011;31032;49.512;10.892;2022-08-03T10:51:56;1.65;;;0.95;;
31500;SDS011;31032;49.512;10.892;2022-08-03T10:56:59;2.13;;;0.70;;
31500;SDS011;31032;49.512;10.892;2022-08-03T11:02:13;1.75;;;0.82;;
31500;SDS011;31032;49.512;10.892;2022-08-03T11:04:39;1.48;;;0.90;;
31500;SDS011;31032;49.512;10.892;2022-08-03T11:09:40;1.42;;;0.70;;
31500;SDS011;31032;49.512;10.892;2022-08-03T11:12:29;1.05;;;0.70;;
31500;SDS011;31032;49.512;10.892;2022-08-03T11:14:53;1.05;;;0.60;;
31500;SDS011;31032;49.512;10.892;2022-08-03T11:17:20;0.85;;;0.57;;
31500;SDS011;31032;49.512;10.892;2022-08-03T11:19:47;2.70;;;0.60;;
31500;SDS011;31032;49.512;10.892;2022-08-03T11:22:13;1.73;;;0.70;;
31500;SDS011;31032;49.512;10.892;2022-08-03T11:35:10;1.23;;;0.68;;
31500;SDS011;31032;49.512;10.892;2022-08-03T11:48:27;0.95;;;0.60;;
31500;SDS011;31032;49.512;10.892;2022-08-03T11:51:01;1.63;;;0.60;;
31500;SDS011;31032;49.512;10.892;2022-08-03T11:53:32;3.53;;;0.70;;
31500;SDS011;31032;49.512;10.892;2022-08-03T11:55:58;1.13;;;0.52;;
31500;SDS011;31032;49.512;10.892;2022-08-03T11:58:25;1.00;;;0.63;;
31500;SDS011;31032;49.512;10.892;2022-08-03T12:00:50;0.93;;;0.60;;
31500;SDS011;31032;49.512;10.892;2022-08-03T12:03:19;1.10;;;0.60;;
31500;SDS011;31032;49.512;10.892;2022-08-03T12:05:48;1.15;;;0.70;;
31500;SDS011;31032;49.512;10.892;2022-08-03T12:10:50;1.20;;;0.55;;
31500;SDS011;31032;49.512;10.892;2022-08-03T12:13:16;1.00;;;0.70;;
31500;SDS011;31032;49.512;10.892;2022-08-03T12:15:42;1.60;;;0.50;;
31500;SDS011;31032;49.512;10.892;2022-08-03T12:18:15;1.02;;;0.45;;
31500;SDS011;31032;49.512;10.892;2022-08-03T12:20:42;1.90;;;0.70;;
31500;SDS011;31032;49.512;10.892;2022-08-03T12:23:09;1.45;;;0.70;;
31500;SDS011;31032;49.512;10.892;2022-08-03T12:25:35;1.52;;;0.50;;
31500;SDS011;31032;49.512;10.892;2022-08-03T12:28:20;1.33;;;0.57;;
31500;SDS011;31032;49.512;10.892;2022-08-03T12:30:48;0.88;;;0.50;;
31500;SDS011;31032;49.512;10.892;2022-08-03T12:35:49;0.65;;;0.35;;
31500;SDS011;31032;49.512;10.892;2022-08-03T12:38:35;2.78;;;0.47;;
31500;SDS011;31032;49.512;10.892;2022-08-03T12:41:09;1.25;;;0.40;;
31500;SDS011;31032;49.512;10.892;2022-08-03T12:43:49;1.00;;;0.43;;
31500;SDS011;31032;49.512;10.892;2022-08-03T12:46:16;0.85;;;0.30;;
31500;SDS011;31032;49.512;10.892;2022-08-03T12:51:31;1.33;;;0.45;;
31500;SDS011;31032;49.512;10.892;2022-08-03T12:53:58;2.30;;;0.30;;
31500;SDS011;31032;49.512;10.892;2022-08-03T12:56:24;0.50;;;0.30;;
31500;SDS011;31032;49.512;10.892;2022-08-03T12:58:50;1.13;;;0.32;;
31500;SDS011;31032;49.512;10.892;2022-08-03T13:01:17;2.08;;;0.40;;
31500;SDS011;31032;49.512;10.892;2022-08-03T13:03:43;1.13;;;0.40;;
31500;SDS011;31032;49.512;10.892;2022-08-03T13:06:11;1.48;;;0.30;;
31500;SDS011;31032;49.512;10.892;2022-08-03T13:08:40;1.95;;;0.50;;
31500;SDS011;31032;49.512;10.892;2022-08-03T13:11:23;0.68;;;0.30;;
31500;SDS011;31032;49.512;10.892;2022-08-03T13:13:50;1.00;;;0.40;;
31500;SDS011;31032;49.512;10.892;2022-08-03T13:16:17;0.20;;;0.10;;
31500;SDS011;31032;49.512;10.892;2022-08-03T13:18:43;0.60;;;0.35;;
31500;SDS011;31032;49.512;10.892;2022-08-03T13:21:11;1.63;;;0.50;;
31500;SDS011;31032;49.512;10.892;2022-08-03T13:23:37;0.70;;;0.45;;
31500;SDS011;31032;49.512;10.892;2022-08-03T13:26:02;1.52;;;0.45;;
31500;SDS011;31032;49.512;10.892;2022-08-03T13:28:27;0.60;;;0.32;;
31500;SDS011;31032;49.512;10.892;2022-08-03T13:30:52;0.60;;;0.30;;
31500;SDS011;31032;49.512;10.892;2022-08-03T13:33:18;0.90;;;0.45;;
31500;SDS011;31032;49.512;10.892;2022-08-03T13:35:44;2.28;;;0.57;;
31500;SDS011;31032;49.512;10.892;2022-08-03T13:38:09;1.02;;;0.40;;
31500;SDS011;31032;49.512;10.892;2022-08-03T13:40:35;0.80;;;0.38;;
31500;SDS011;31032;49.512;10.892;2022-08-03T13:43:02;0.65;;;0.30;;
31500;SDS011;31032;49.512;10.892;2022-08-03T13:45:27;0.95;;;0.30;;
31500;SDS011;31032;49.512;10.892;2022-08-03T13:47:53;1.23;;;0.30;;
31500;SDS011;31032;49.512;10.892;2022-08-03T13:50:18;0.50;;;0.30;;
31500;SDS011;31032;49.512;10.892;2022-08-03T13:52:44;0.68;;;0.25;;
31500;SDS011;31032;49.512;10.892;2022-08-03T13:55:10;1.15;;;0.30;;
31500;SDS011;31032;49.512;10.892;2022-08-03T13:57:36;1.13;;;0.50;;
31500;SDS011;31032;49.512;10.892;2022-08-03T14:00:02;1.95;;;0.40;;
31500;SDS011;31032;49.512;10.892;2022-08-03T14:02:29;0.70;;;0.38;;
31500;SDS011;31032;49.512;10.892;2022-08-03T14:04:54;0.63;;;0.30;;
31500;SDS011;31032;49.512;10.892;2022-08-03T14:07:21;0.70;;;0.38;;
31500;SDS011;31032;49.512;10.892;2022-08-03T14:09:46;1.70;;;0.30;;
31500;SDS011;31032;49.512;10.892;2022-08-03T14:12:12;0.80;;;0.38;;
31500;SDS011;31032;49.512;10.892;2022-08-03T14:14:37;1.40;;;0.20;;
31500;SDS011;31032;49.512;10.892;2022-08-03T14:17:03;0.43;;;0.20;;
31500;SDS011;31032;49.512;10.892;2022-08-03T14:19:28;0.30;;;0.30;;
31500;SDS011;31032;49.512;10.892;2022-08-03T14:21:54;0.80;;;0.30;;
31500;SDS011;31032;49.512;10.892;2022-08-03T14:24:19;0.80;;;0.40;;
31500;SDS011;31032;49.512;10.892;2022-08-03T14:26:44;0.82;;;0.22;;
31500;SDS011;31032;49.512;10.892;2022-08-03T14:29:10;0.20;;;0.10;;
31500;SDS011;31032;49.512;10.892;2022-08-03T14:31:35;0.73;;;0.30;;
31500;SDS011;31032;49.512;10.892;2022-08-03T14:34:01;0.57;;;0.30;;
31500;SDS011;31032;49.512;10.892;2022-08-03T14:36:26;2.25;;;0.30;;
31500;SDS011;31032;49.512;10.892;2022-08-03T14:38:52;0.88;;;0.32;;
31500;SDS011;31032;49.512;10.892;2022-08-03T14:41:17;0.43;;;0.30;;
31500;SDS011;31032;49.512;10.892;2022-08-03T14:43:42;0.50;;;0.28;;
31500;SDS011;31032;49.512;10.892;2022-08-03T14:46:08;0.40;;;0.20;;
31500;SDS011;31032;49.512;10.892;2022-08-03T14:48:33;2.45;;;0.35;;
31500;SDS011;31032;49.512;10.892;2022-08-03T14:50:58;0.70;;;0.32;;
31500;SDS011;31032;49.512;10.892;2022-08-03T14:53:24;0.52;;;0.30;;
31500;SDS011;31032;49.512;10.892;2022-08-03T14:55:49;0.47;;;0.20;;
31500;SDS011;31032;49.512;10.892;2022-08-03T14:58:25;0.43;;;0.20;;
31500;SDS011;31032;49.512;10.892;2022-08-03T15:00:51;0.95;;;0.30;;
31500;SDS011;31032;49.512;10.892;2022-08-03T15:03:18;2.23;;;0.30;;
31500;SDS011;31032;49.512;10.892;2022-08-03T15:05:47;0.40;;;0.30;;
31500;SDS011;31032;49.512;10.892;2022-08-03T15:08:13;0.50;;;0.20;;
31500;SDS011;31032;49.512;10.892;2022-08-03T15:10:38;2.38;;;0.30;;
31500;SDS011;31032;49.512;10.892;2022-08-03T15:13:04;1.17;;;0.35;;
31500;SDS011;31032;49.512;10.892;2022-08-03T15:15:29;0.43;;;0.25;;
31500;SDS011;31032;49.512;10.892;2022-08-03T15:17:54;3.22;;;0.30;;
31500;SDS011;31032;49.512;10.892;2022-08-03T15:20:20;0.45;;;0.20;;
31500;SDS011;31032;49.512;10.892;2022-08-03T15:22:45;1.17;;;0.30;;
31500;SDS011;31032;49.512;10.892;2022-08-03T15:25:10;0.93;;;0.28;;
31500;SDS011;31032;49.512;10.892;2022-08-03T15:27:36;2.10;;;0.25;;
31500;SDS011;31032;49.512;10.892;2022-08-03T15:30:02;0.70;;;0.30;;
31500;SDS011;31032;49.512;10.892;2022-08-03T15:32:30;0.30;;;0.20;;
31500;SDS011;31032;49.512;10.892;2022-08-03T15:34:56;0.70;;;0.20;;
31500;SDS011;31032;49.512;10.892;2022-08-03T15:37:21;1.30;;;0.20;;